Time;durP1;ratioP1;P1;durP2;ratioP2;P2;SDS_P1;SDS_P2;PMS_P1;PMS_P2;Temp;Humidity;BMP_temperature;BMP_pressure;BME280_temperature;BME280_humidity;BME280_pressure;Samples;Min_cycle;Max_cycle;Signal;HPM_P1;HPM_P2
2024/03/03 00:00:05;;;;;;;11.02;3.55;;;10.60;99.90;;;;;;5001058;28;20088;-69
2024/03/03 00:02:31;;;;;;;7.47;2.70;;;10.60;99.90;;;;;;5009614;28;20470;-68
2024/03/03 00:04:57;;;;;;;7.18;3.80;;;10.50;99.90;;;;;;5016688;28;20029;-69
2024/03/03 00:07:22;;;;;;;8.80;3.40;;;10.50;99.90;;;;;;5007003;28;20041;-70
2024/03/03 00:09:48;;;;;;;13.55;5.13;;;10.50;99.90;;;;;;5004815;28;20057;-68
2024/03/03 00:12:14;;;;;;;7.00;3.00;;;10.50;99.90;;;;;;5002637;28;20116;-68
2024/03/03 00:14:40;;;;;;;10.50;3.95;;;10.50;99.90;;;;;;5003532;28;20383;-67
2024/03/03 00:17:05;;;;;;;5.97;3.20;;;10.50;99.90;;;;;;5000507;28;20057;-68
2024/03/03 00:19:31;;;;;;;10.52;4.93;;;10.50;99.90;;;;;;5000880;28;20033;-69
2024/03/03 00:21:57;;;;;;;9.35;3.35;;;10.40;99.90;;;;;;5004869;28;20026;-68
2024/03/03 00:24:22;;;;;;;11.38;5.40;;;10.40;99.90;;;;;;5008391;28;20425;-68
2024/03/03 00:26:49;;;;;;;14.15;5.00;;;10.40;99.90;;;;;;5016688;28;20026;-68
2024/03/03 00:29:14;;;;;;;10.95;4.68;;;10.40;99.90;;;;;;5004848;28;20026;-68
2024/03/03 00:31:44;;;;;;;11.07;4.45;;;10.30;99.90;;;;;;4988768;28;20027;-68
2024/03/03 00:34:10;;;;;;;7.90;4.35;;;10.20;99.90;;;;;;5006452;28;20029;-69
2024/03/03 00:36:36;;;;;;;11.05;5.05;;;10.20;99.90;;;;;;5011176;28;20018;-68
2024/03/03 00:39:05;;;;;;;12.25;4.90;;;10.20;99.90;;;;;;5006797;28;20505;-69
2024/03/03 00:41:31;;;;;;;12.98;4.68;;;10.20;99.90;;;;;;4986477;28;20114;-69
2024/03/03 00:43:57;;;;;;;8.85;3.95;;;10.20;99.90;;;;;;5020752;28;20109;-69
2024/03/03 00:46:23;;;;;;;15.07;4.88;;;10.20;99.90;;;;;;5002221;28;20601;-69
2024/03/03 00:48:48;;;;;;;10.85;5.30;;;10.20;99.90;;;;;;5017676;28;20026;-68
2024/03/03 00:51:14;;;;;;;31.90;6.28;;;10.20;99.90;;;;;;5005335;28;20022;-67
2024/03/03 00:53:40;;;;;;;16.25;5.30;;;10.20;99.90;;;;;;5019192;28;20111;-68
2024/03/03 00:56:06;;;;;;;10.75;5.00;;;10.10;99.90;;;;;;4986751;28;20037;-68
2024/03/03 00:58:32;;;;;;;10.32;5.60;;;10.10;99.90;;;;;;5017695;28;20030;-68
2024/03/03 01:00:57;;;;;;;10.73;5.35;;;9.80;99.90;;;;;;5015598;23;20017;-72
2024/03/03 01:03:23;;;;;;;20.92;5.38;;;9.80;99.90;;;;;;4999521;28;20501;-71
2024/03/03 01:05:49;;;;;;;10.75;5.55;;;9.80;99.90;;;;;;5002480;28;20387;-72
2024/03/03 01:08:15;;;;;;;14.05;5.68;;;9.80;99.90;;;;;;5015622;28;20036;-72
2024/03/03 01:10:41;;;;;;;10.02;4.40;;;9.70;99.90;;;;;;5002440;28;20128;-72
2024/03/03 01:13:06;;;;;;;12.48;5.75;;;9.60;99.90;;;;;;4999617;28;20053;-70
2024/03/03 01:15:32;;;;;;;14.95;5.10;;;9.60;99.90;;;;;;5007892;28;20034;-70
2024/03/03 01:17:58;;;;;;;11.57;5.70;;;9.50;99.90;;;;;;5002398;28;20065;-70
2024/03/03 01:20:24;;;;;;;13.52;5.97;;;9.30;99.90;;;;;;5001406;28;20371;-70
2024/03/03 01:22:49;;;;;;;10.70;4.13;;;9.30;99.90;;;;;;4997621;28;20033;-70
2024/03/03 01:25:15;;;;;;;9.57;4.82;;;9.20;99.90;;;;;;5002311;28;20045;-70
2024/03/03 01:27:41;;;;;;;11.68;5.53;;;9.20;99.90;;;;;;5012401;28;20106;-70
2024/03/03 01:30:07;;;;;;;19.70;4.82;;;9.30;99.90;;;;;;5016494;28;20034;-70
2024/03/03 01:32:33;;;;;;;18.02;5.53;;;9.30;99.90;;;;;;5001325;28;20567;-70
2024/03/03 01:34:58;;;;;;;14.25;5.78;;;9.30;99.90;;;;;;5000961;28;20044;-70
2024/03/03 01:37:24;;;;;;;11.05;4.40;;;9.30;99.90;;;;;;5000332;28;20105;-71
2024/03/03 01:39:50;;;;;;;9.00;5.60;;;9.40;99.90;;;;;;5019254;28;20038;-70
2024/03/03 01:42:15;;;;;;;18.95;5.65;;;9.50;99.90;;;;;;5001684;28;20108;-71
2024/03/03 01:44:41;;;;;;;7.35;4.90;;;9.40;99.90;;;;;;4998504;28;20105;-72
2024/03/03 01:47:13;;;;;;;12.52;4.95;;;9.40;99.90;;;;;;5000403;28;20046;-72
2024/03/03 01:49:39;;;;;;;11.48;4.75;;;9.30;99.90;;;;;;5000131;28;20046;-69
2024/03/03 01:52:08;;;;;;;13.45;5.60;;;9.20;99.90;;;;;;5001156;28;20046;-70
2024/03/03 01:54:36;;;;;;;15.75;4.63;;;9.20;99.90;;;;;;5000028;28;20099;-70
2024/03/03 01:57:09;;;;;;;14.32;5.03;;;9.10;99.90;;;;;;5001032;28;20074;-71
2024/03/03 01:59:36;;;;;;;14.05;5.00;;;9.10;99.90;;;;;;5004814;28;20046;-71
2024/03/03 02:02:03;;;;;;;9.25;4.90;;;9.10;99.90;;;;;;5004422;28;20034;-71
2024/03/03 02:04:29;;;;;;;17.50;7.50;;;9.10;99.90;;;;;;4998576;28;20026;-71
2024/03/03 02:06:57;;;;;;;8.68;5.13;;;9.10;99.90;;;;;;4990584;28;20037;-71
2024/03/03 02:09:22;;;;;;;15.25;6.55;;;9.10;99.90;;;;;;5000412;28;20018;-71
2024/03/03 02:11:48;;;;;;;11.93;4.13;;;9.10;99.90;;;;;;5000539;28;20049;-71
2024/03/03 02:14:14;;;;;;;10.18;5.05;;;9.10;99.90;;;;;;5000227;28;20390;-71
2024/03/03 02:16:41;;;;;;;14.80;7.15;;;9.00;99.90;;;;;;4999377;28;20030;-71
2024/03/03 02:19:07;;;;;;;10.18;5.35;;;9.10;99.90;;;;;;4999220;28;20030;-71
2024/03/03 02:21:33;;;;;;;16.17;4.95;;;9.00;99.90;;;;;;4999033;28;20144;-71
2024/03/03 02:23:58;;;;;;;14.95;5.43;;;8.90;99.90;;;;;;4999544;28;20112;-71
2024/03/03 02:26:26;;;;;;;14.18;6.68;;;8.90;99.90;;;;;;5004277;28;20041;-71
2024/03/03 02:28:54;;;;;;;13.35;5.38;;;8.90;99.90;;;;;;5017785;28;20402;-71
2024/03/03 02:31:20;;;;;;;10.48;4.60;;;8.90;99.90;;;;;;4997903;28;20033;-71
2024/03/03 02:33:46;;;;;;;10.55;5.35;;;8.80;99.90;;;;;;5000524;28;20029;-71
2024/03/03 02:36:12;;;;;;;13.30;5.32;;;8.80;99.90;;;;;;4998867;28;20035;-71
2024/03/03 02:38:43;;;;;;;8.98;4.55;;;8.70;99.90;;;;;;5003484;28;20027;-71
2024/03/03 02:41:08;;;;;;;15.25;5.53;;;8.60;99.90;;;;;;5000713;28;20070;-71
2024/03/03 02:43:35;;;;;;;6.15;3.67;;;8.50;99.90;;;;;;4996838;28;20137;-71
2024/03/03 02:46:00;;;;;;;13.90;5.35;;;8.50;99.90;;;;;;5003492;28;20034;-71
2024/03/03 02:48:26;;;;;;;9.20;4.28;;;8.30;99.90;;;;;;5004360;28;20026;-71
2024/03/03 02:50:52;;;;;;;10.15;4.20;;;8.30;99.90;;;;;;5019394;28;20034;-71
2024/03/03 02:53:17;;;;;;;15.68;5.22;;;8.20;99.90;;;;;;5017528;28;20018;-71
2024/03/03 02:55:43;;;;;;;15.73;4.55;;;8.20;99.90;;;;;;4999257;28;20084;-71
2024/03/03 02:58:09;;;;;;;10.75;4.50;;;8.20;99.90;;;;;;5000530;28;20369;-71
2024/03/03 03:00:35;;;;;;;15.75;4.80;;;8.10;99.90;;;;;;5002954;28;20061;-71
2024/03/03 03:03:01;;;;;;;8.77;5.28;;;8.00;99.90;;;;;;5016445;28;20488;-71
2024/03/03 03:05:27;;;;;;;11.38;3.75;;;8.00;99.90;;;;;;5001360;28;20042;-71
2024/03/03 03:07:53;;;;;;;11.88;4.45;;;7.90;99.90;;;;;;4997903;28;20114;-71
2024/03/03 03:10:20;;;;;;;13.95;5.43;;;8.00;99.90;;;;;;5000804;28;20069;-71
2024/03/03 03:12:46;;;;;;;11.35;5.45;;;7.90;99.90;;;;;;5017915;28;20014;-71
2024/03/03 03:15:12;;;;;;;7.28;3.38;;;7.90;99.90;;;;;;5002735;28;20430;-71
2024/03/03 03:17:38;;;;;;;11.85;4.50;;;7.90;99.90;;;;;;5008173;28;20034;-71
2024/03/03 03:20:05;;;;;;;11.15;4.53;;;7.90;99.90;;;;;;4987986;28;20088;-71
2024/03/03 03:22:30;;;;;;;11.80;4.15;;;7.90;99.90;;;;;;5007124;28;20113;-71
2024/03/03 03:24:56;;;;;;;13.32;4.72;;;7.90;99.90;;;;;;5005096;28;20441;-71
2024/03/03 03:27:22;;;;;;;9.32;5.00;;;7.90;99.90;;;;;;5003581;28;20030;-71
2024/03/03 03:29:47;;;;;;;7.28;3.65;;;7.90;99.90;;;;;;5001515;28;20392;-71
2024/03/03 03:32:13;;;;;;;12.38;5.30;;;7.90;99.90;;;;;;5004855;28;20034;-71
2024/03/03 03:34:43;;;;;;;13.10;3.90;;;7.80;99.90;;;;;;5003273;28;20070;-71
2024/03/03 03:37:08;;;;;;;24.63;4.93;;;7.70;99.90;;;;;;5002276;28;20022;-71
2024/03/03 03:39:34;;;;;;;11.40;4.43;;;7.80;99.90;;;;;;5001721;28;20041;-71
2024/03/03 03:42:00;;;;;;;7.43;4.18;;;7.80;99.90;;;;;;5017602;28;20029;-71
2024/03/03 03:44:27;;;;;;;8.02;4.30;;;7.80;99.90;;;;;;5001277;28;20463;-71
2024/03/03 03:46:52;;;;;;;8.93;3.78;;;7.80;99.90;;;;;;5006061;28;20047;-71
2024/03/03 03:49:18;;;;;;;11.95;5.03;;;7.80;99.90;;;;;;5001438;28;20526;-72
2024/03/03 03:51:44;;;;;;;9.30;4.68;;;7.70;99.90;;;;;;4996746;28;20053;-71
2024/03/03 03:54:10;;;;;;;8.98;3.83;;;7.80;99.90;;;;;;5009173;28;20041;-71
2024/03/03 03:56:36;;;;;;;8.65;4.75;;;7.80;99.90;;;;;;5010114;28;20081;-71
2024/03/03 03:59:06;;;;;;;8.73;5.10;;;7.60;99.90;;;;;;4989956;28;20577;-71
2024/03/03 04:01:32;;;;;;;10.00;4.18;;;7.60;99.90;;;;;;4993720;28;20030;-72
2024/03/03 04:03:59;;;;;;;8.60;5.70;;;7.60;99.90;;;;;;5012766;28;20031;-72
2024/03/03 04:06:27;;;;;;;11.00;4.97;;;7.60;99.90;;;;;;4995282;28;20101;-72
2024/03/03 04:08:54;;;;;;;16.58;5.38;;;7.60;99.90;;;;;;4990747;28;20022;-71
2024/03/03 04:11:20;;;;;;;8.93;4.97;;;7.70;99.90;;;;;;4993603;28;20023;-71
2024/03/03 04:13:50;;;;;;;11.23;5.03;;;7.70;99.90;;;;;;4993574;28;20018;-71
2024/03/03 04:16:17;;;;;;;10.32;4.55;;;7.70;99.90;;;;;;4991858;28;20084;-70
2024/03/03 04:18:44;;;;;;;14.98;5.85;;;7.60;99.90;;;;;;4978807;28;20037;-71
2024/03/03 04:21:10;;;;;;;9.77;4.28;;;7.60;99.90;;;;;;5007930;28;20093;-70
2024/03/03 04:23:39;;;;;;;9.15;4.35;;;7.60;99.90;;;;;;4994445;28;20022;-71
2024/03/03 04:26:06;;;;;;;10.63;4.57;;;7.60;99.90;;;;;;4987409;28;20482;-71
2024/03/03 04:28:33;;;;;;;11.30;6.05;;;7.60;99.90;;;;;;4975086;28;20034;-71
2024/03/03 04:31:03;;;;;;;6.05;3.72;;;7.60;99.90;;;;;;5015157;28;20030;-71
2024/03/03 04:33:29;;;;;;;15.20;5.25;;;7.60;99.90;;;;;;4992979;28;20022;-71
2024/03/03 04:35:55;;;;;;;19.58;5.28;;;7.60;99.90;;;;;;4992501;28;20336;-71
2024/03/03 04:38:20;;;;;;;7.70;3.55;;;7.60;99.90;;;;;;4992637;28;20118;-71
2024/03/03 04:40:46;;;;;;;7.85;3.80;;;7.60;99.90;;;;;;4991949;28;20439;-71
2024/03/03 04:43:12;;;;;;;9.23;4.28;;;7.50;99.90;;;;;;5008761;28;20058;-71
2024/03/03 04:45:38;;;;;;;12.50;4.38;;;7.50;99.90;;;;;;4991495;28;20353;-71
2024/03/03 04:48:04;;;;;;;6.55;3.92;;;7.50;99.90;;;;;;4989723;28;20026;-71
2024/03/03 04:50:30;;;;;;;7.97;3.95;;;7.50;99.90;;;;;;4994376;28;20030;-71
2024/03/03 04:52:55;;;;;;;11.50;4.45;;;7.50;99.90;;;;;;4989550;28;20428;-71
2024/03/03 04:55:21;;;;;;;21.42;5.10;;;7.40;99.90;;;;;;4993937;28;20050;-70
2024/03/03 04:57:47;;;;;;;11.13;5.07;;;7.50;99.90;;;;;;4991578;28;20041;-71
2024/03/03 05:00:14;;;;;;;15.57;4.97;;;7.40;99.90;;;;;;4992322;28;20419;-69
2024/03/03 05:02:40;;;;;;;9.85;5.63;;;7.40;99.90;;;;;;5001378;28;20445;-70
2024/03/03 05:05:06;;;;;;;7.75;3.97;;;7.40;99.90;;;;;;5004205;28;20034;-69
2024/03/03 05:07:33;;;;;;;14.32;5.70;;;7.50;99.90;;;;;;5003021;28;20088;-68
2024/03/03 05:09:59;;;;;;;14.02;4.90;;;7.40;99.90;;;;;;5005624;28;20049;-70
2024/03/03 05:12:25;;;;;;;9.13;4.47;;;7.40;99.90;;;;;;5001516;28;20041;-71
2024/03/03 05:14:51;;;;;;;12.05;4.80;;;7.40;99.90;;;;;;5001722;28;20026;-71
2024/03/03 05:17:17;;;;;;;11.32;4.78;;;7.40;99.90;;;;;;5018841;28;20383;-71
2024/03/03 05:19:43;;;;;;;16.33;5.65;;;7.40;99.90;;;;;;5002247;28;20038;-71
2024/03/03 05:22:09;;;;;;;9.60;4.50;;;7.30;99.90;;;;;;5004348;28;20030;-70
2024/03/03 05:24:35;;;;;;;10.27;4.13;;;7.30;99.90;;;;;;5000898;28;20038;-71
2024/03/03 05:27:01;;;;;;;15.00;6.40;;;7.30;99.90;;;;;;5001423;28;20377;-71
2024/03/03 05:29:28;;;;;;;13.68;4.32;;;7.20;99.90;;;;;;5002918;28;20036;-71
2024/03/03 05:31:54;;;;;;;45.80;21.02;;;7.20;99.90;;;;;;5000416;28;20030;-71
2024/03/03 05:34:19;;;;;;;17.42;6.68;;;7.20;99.90;;;;;;5004030;28;20033;-71
2024/03/03 05:36:46;;;;;;;9.98;4.43;;;7.20;99.90;;;;;;5003347;28;20018;-71
2024/03/03 05:39:13;;;;;;;14.40;4.70;;;7.20;99.90;;;;;;4999714;28;20037;-71
2024/03/03 05:41:39;;;;;;;8.48;5.13;;;7.20;99.90;;;;;;5001066;28;20045;-72
2024/03/03 05:44:07;;;;;;;13.52;5.65;;;7.20;99.90;;;;;;5000765;28;20022;-71
2024/03/03 05:46:36;;;;;;;11.82;4.82;;;7.20;99.90;;;;;;4992429;28;20403;-70
2024/03/03 05:49:03;;;;;;;9.23;4.72;;;7.20;99.90;;;;;;5009368;28;20088;-70
2024/03/03 05:51:29;;;;;;;6.72;4.32;;;7.20;99.90;;;;;;4992647;28;20533;-73
2024/03/03 05:53:55;;;;;;;11.50;4.78;;;7.20;99.90;;;;;;4991219;28;20042;-69
2024/03/03 05:56:20;;;;;;;15.88;5.72;;;7.20;99.90;;;;;;4991045;28;20098;-70
2024/03/03 05:58:46;;;;;;;11.55;5.63;;;7.20;99.90;;;;;;4992837;28;20080;-71
2024/03/03 06:01:12;;;;;;;9.40;4.95;;;7.10;99.90;;;;;;4992110;28;20061;-71
2024/03/03 06:03:39;;;;;;;10.52;4.93;;;7.10;99.90;;;;;;4987305;28;20034;-71
2024/03/03 06:06:06;;;;;;;6.57;3.13;;;7.10;99.90;;;;;;4992114;28;20030;-71
2024/03/03 06:08:32;;;;;;;10.02;4.72;;;7.10;99.90;;;;;;4991880;28;20119;-71
2024/03/03 06:10:58;;;;;;;12.82;5.65;;;7.10;99.90;;;;;;4990708;28;20517;-71
2024/03/03 06:13:24;;;;;;;7.65;4.05;;;7.00;99.90;;;;;;5000054;28;20471;-72
2024/03/03 06:15:50;;;;;;;15.98;5.85;;;7.00;99.90;;;;;;4992561;28;20024;-72
2024/03/03 06:18:17;;;;;;;12.82;5.63;;;6.90;99.90;;;;;;4989877;28;20113;-72
2024/03/03 06:20:43;;;;;;;12.27;6.45;;;6.90;99.90;;;;;;4991150;28;20085;-72
2024/03/03 06:23:08;;;;;;;12.18;5.97;;;7.00;99.90;;;;;;5005878;28;20034;-72
2024/03/03 06:25:35;;;;;;;14.93;4.53;;;7.10;99.90;;;;;;4992479;28;20431;-71
2024/03/03 06:28:00;;;;;;;10.13;6.63;;;7.10;99.90;;;;;;4990989;28;20110;-71
2024/03/03 06:30:26;;;;;;;11.70;5.32;;;7.20;99.90;;;;;;4992792;28;20117;-71
2024/03/03 06:32:52;;;;;;;12.77;5.88;;;7.30;99.90;;;;;;4990917;28;20034;-69
2024/03/03 06:35:18;;;;;;;14.07;6.43;;;7.40;99.90;;;;;;4992080;28;20034;-69
2024/03/03 06:37:44;;;;;;;13.45;6.07;;;7.50;99.90;;;;;;5006288;28;20030;-68
2024/03/03 06:40:10;;;;;;;16.88;5.28;;;7.50;99.90;;;;;;5007401;28;20109;-70
2024/03/03 06:42:40;;;;;;;14.68;6.05;;;7.60;99.90;;;;;;4990288;28;20031;-71
2024/03/03 06:45:07;;;;;;;10.05;4.57;;;7.50;99.90;;;;;;4990163;28;20411;-70
2024/03/03 06:47:33;;;;;;;10.50;4.18;;;7.50;99.90;;;;;;4991711;28;20026;-71
2024/03/03 06:49:59;;;;;;;7.93;4.00;;;7.50;99.90;;;;;;4990457;28;20026;-70
2024/03/03 06:52:32;;;;;;;11.70;6.35;;;7.30;99.90;;;;;;4990810;28;20033;-69
2024/03/03 06:54:59;;;;;;;8.68;4.20;;;7.40;99.90;;;;;;4990912;28;20126;-70
2024/03/03 06:57:26;;;;;;;5.80;3.17;;;7.50;99.90;;;;;;4992084;28;20383;-71
2024/03/03 06:59:53;;;;;;;11.93;5.80;;;7.60;99.90;;;;;;4989166;28;20479;-72
2024/03/03 07:02:19;;;;;;;9.10;5.57;;;7.60;99.90;;;;;;5003840;23;20510;-67
2024/03/03 07:04:45;;;;;;;14.68;5.80;;;7.70;99.90;;;;;;4990464;28;20097;-68
2024/03/03 07:07:11;;;;;;;21.67;5.65;;;7.70;99.90;;;;;;4990985;28;20030;-67
2024/03/03 07:09:37;;;;;;;9.75;4.05;;;7.80;99.90;;;;;;4990628;28;20033;-66
2024/03/03 07:12:04;;;;;;;9.30;4.35;;;7.80;99.90;;;;;;5005567;28;20463;-66
2024/03/03 07:14:32;;;;;;;10.95;6.35;;;8.00;99.90;;;;;;5006694;28;20105;-66
2024/03/03 07:16:58;;;;;;;19.80;6.47;;;8.00;99.90;;;;;;4989523;28;20023;-66
2024/03/03 07:19:24;;;;;;;11.13;6.25;;;8.20;99.90;;;;;;4987807;28;20096;-66
2024/03/03 07:21:50;;;;;;;11.93;5.18;;;8.20;99.90;;;;;;4990706;28;20482;-66
2024/03/03 07:24:16;;;;;;;17.85;6.28;;;8.30;99.90;;;;;;5006639;28;20054;-66
2024/03/03 07:26:42;;;;;;;12.23;5.53;;;8.40;99.90;;;;;;4990436;28;20077;-66
2024/03/03 07:29:08;;;;;;;22.38;6.75;;;8.40;99.90;;;;;;4991497;28;20027;-66
2024/03/03 07:31:35;;;;;;;10.88;5.32;;;8.60;99.90;;;;;;4989288;28;20491;-66
2024/03/03 07:34:01;;;;;;;12.73;5.72;;;8.70;99.90;;;;;;4990881;28;20066;-66
2024/03/03 07:36:27;;;;;;;13.55;5.78;;;8.50;99.90;;;;;;5005771;28;20068;-66
2024/03/03 07:38:54;;;;;;;12.77;6.47;;;8.70;99.90;;;;;;5006742;28;20057;-66
2024/03/03 07:41:19;;;;;;;18.35;7.22;;;8.70;99.90;;;;;;4990965;28;20109;-66
2024/03/03 07:43:46;;;;;;;10.45;5.05;;;8.80;99.90;;;;;;4991145;28;20105;-66
2024/03/03 07:46:12;;;;;;;10.90;5.43;;;8.90;99.90;;;;;;4990420;28;20037;-67
2024/03/03 07:48:38;;;;;;;9.20;4.97;;;9.00;99.90;;;;;;4990389;28;20027;-66
2024/03/03 07:51:06;;;;;;;13.90;5.82;;;9.10;99.90;;;;;;4988879;28;20062;-67
2024/03/03 07:53:32;;;;;;;8.82;5.95;;;9.30;99.90;;;;;;4991028;28;20407;-66
2024/03/03 07:55:59;;;;;;;10.93;4.65;;;9.30;99.90;;;;;;4991797;28;20141;-66
2024/03/03 07:58:25;;;;;;;10.80;5.38;;;9.30;99.90;;;;;;4993908;28;20474;-67
2024/03/03 08:00:52;;;;;;;18.08;6.10;;;9.40;99.90;;;;;;4993719;28;20030;-66
2024/03/03 08:03:17;;;;;;;17.38;5.97;;;9.50;99.90;;;;;;4994880;28;20112;-66
2024/03/03 08:05:43;;;;;;;12.57;5.10;;;9.60;99.90;;;;;;4992371;28;20051;-66
2024/03/03 08:08:09;;;;;;;12.30;5.60;;;9.80;99.90;;;;;;4994976;28;20506;-66
2024/03/03 08:10:35;;;;;;;14.07;6.82;;;9.80;99.90;;;;;;5009621;28;20073;-66
2024/03/03 08:13:00;;;;;;;16.90;5.90;;;9.50;99.90;;;;;;4993383;28;20034;-67
2024/03/03 08:15:27;;;;;;;10.68;5.20;;;9.80;99.90;;;;;;4993338;28;20034;-67
2024/03/03 08:17:52;;;;;;;13.50;6.25;;;9.70;99.90;;;;;;4992526;28;20735;-67
2024/03/03 08:20:19;;;;;;;12.95;5.85;;;9.90;99.90;;;;;;4994431;28;20034;-66
2024/03/03 08:22:45;;;;;;;15.18;6.03;;;9.90;99.90;;;;;;4993541;28;20113;-66
2024/03/03 08:25:18;;;;;;;10.38;5.22;;;10.10;99.90;;;;;;4994305;28;20545;-67
2024/03/03 08:27:44;;;;;;;15.13;6.75;;;10.30;99.90;;;;;;4992426;28;20053;-66
2024/03/03 08:30:14;;;;;;;12.93;6.60;;;10.40;99.90;;;;;;5009789;28;20023;-66
2024/03/03 08:32:40;;;;;;;17.40;6.82;;;10.30;99.90;;;;;;4993124;28;20030;-66
2024/03/03 08:35:08;;;;;;;13.40;7.10;;;10.30;99.90;;;;;;4992925;28;20065;-66
2024/03/03 08:37:34;;;;;;;15.57;6.47;;;10.50;99.90;;;;;;5008230;28;20030;-66
2024/03/03 08:40:00;;;;;;;20.70;5.95;;;10.70;99.90;;;;;;4992798;28;20019;-68
2024/03/03 08:42:26;;;;;;;9.50;5.28;;;10.70;99.90;;;;;;5007889;28;20391;-66
2024/03/03 08:44:52;;;;;;;12.93;5.40;;;10.70;99.90;;;;;;4993769;28;20030;-67
2024/03/03 08:47:18;;;;;;;16.85;6.93;;;11.00;99.90;;;;;;4991762;28;20085;-66
2024/03/03 08:49:44;;;;;;;16.42;6.28;;;11.20;99.90;;;;;;4994075;28;20034;-66
2024/03/03 08:52:10;;;;;;;14.95;6.60;;;11.30;99.90;;;;;;4991051;28;20114;-66
2024/03/03 08:54:37;;;;;;;13.88;5.53;;;11.10;99.90;;;;;;5008647;28;20117;-66
2024/03/03 08:57:04;;;;;;;16.00;5.13;;;11.30;99.90;;;;;;4992323;28;20037;-67
2024/03/03 08:59:29;;;;;;;16.60;6.63;;;11.40;99.90;;;;;;4994176;28;20034;-66
2024/03/03 09:01:55;;;;;;;10.75;4.95;;;11.30;99.90;;;;;;4992395;28;20167;-67
2024/03/03 09:04:21;;;;;;;14.35;6.45;;;11.40;99.90;;;;;;4992418;28;20030;-67
2024/03/03 09:06:47;;;;;;;15.60;5.82;;;11.50;99.90;;;;;;4990781;28;20034;-67
2024/03/03 09:09:16;;;;;;;18.60;8.05;;;11.80;99.90;;;;;;5008740;28;20030;-68
2024/03/03 09:11:45;;;;;;;12.25;5.88;;;12.00;99.90;;;;;;4992505;28;20030;-67
2024/03/03 09:14:14;;;;;;;12.90;5.65;;;12.00;99.90;;;;;;5007802;28;20544;-66
2024/03/03 09:16:40;;;;;;;15.00;6.57;;;12.00;99.90;;;;;;4992444;28;20487;-67
2024/03/03 09:19:07;;;;;;;19.60;7.32;;;12.20;99.90;;;;;;4975968;28;20168;-67
2024/03/03 09:21:34;;;;;;;14.85;6.30;;;12.00;99.90;;;;;;4991963;28;20041;-67
2024/03/03 09:24:00;;;;;;;13.15;5.53;;;12.40;99.90;;;;;;4992012;28;20033;-67
2024/03/03 09:26:26;;;;;;;11.02;5.38;;;12.10;99.90;;;;;;4992709;28;20034;-67
2024/03/03 09:28:52;;;;;;;16.73;6.10;;;12.20;99.90;;;;;;4993304;28;20030;-67
2024/03/03 09:31:19;;;;;;;11.35;5.28;;;12.10;99.90;;;;;;4991923;28;20073;-67
2024/03/03 09:33:45;;;;;;;12.38;5.00;;;12.40;99.90;;;;;;4993388;28;20569;-67
2024/03/03 09:36:11;;;;;;;10.52;5.88;;;12.60;99.90;;;;;;4998593;28;20030;-67
2024/03/03 09:38:37;;;;;;;13.35;6.75;;;12.90;99.90;;;;;;4993513;28;20034;-67
2024/03/03 09:41:03;;;;;;;21.23;6.90;;;13.10;99.90;;;;;;4992048;28;20047;-67
2024/03/03 09:43:38;;;;;;;10.82;5.68;;;13.00;99.90;;;;;;4992008;28;20029;-68
2024/03/03 09:46:04;;;;;;;13.82;6.22;;;12.40;99.90;;;;;;4990600;28;20031;-67
2024/03/03 09:48:33;;;;;;;14.45;5.80;;;12.50;99.90;;;;;;4991916;28;20026;-67
2024/03/03 09:50:59;;;;;;;14.48;6.13;;;12.80;99.90;;;;;;5006520;28;20518;-67
2024/03/03 09:53:27;;;;;;;12.43;5.85;;;13.30;99.90;;;;;;4992899;28;20030;-67
2024/03/03 09:55:55;;;;;;;9.43;4.47;;;13.50;99.90;;;;;;5006451;28;20019;-67
2024/03/03 09:58:21;;;;;;;14.50;5.68;;;13.80;99.90;;;;;;4991987;28;20065;-67
2024/03/03 10:00:51;;;;;;;12.35;6.28;;;13.30;99.90;;;;;;4989816;28;20053;-67
2024/03/03 10:03:20;;;;;;;15.77;7.20;;;13.50;99.90;;;;;;4991698;28;20029;-68
2024/03/03 10:05:47;;;;;;;11.00;5.55;;;13.40;99.90;;;;;;4991076;28;20030;-67
2024/03/03 10:08:18;;;;;;;16.98;6.32;;;13.80;99.90;;;;;;5007752;28;20366;-67
2024/03/03 10:10:47;;;;;;;;;;;13.50;99.90;;;;;;4992191;28;20027;-66
2024/03/03 10:13:14;;;;;;;11.65;6.20;;;13.50;99.90;;;;;;4999853;28;19918;-68
2024/03/03 10:15:43;;;;;;;8.82;4.93;;;13.60;99.90;;;;;;5006579;28;20109;-67
2024/03/03 10:18:08;;;;;;;8.77;4.63;;;14.20;99.90;;;;;;4990393;28;20069;-67
2024/03/03 10:20:34;;;;;;;13.82;6.03;;;13.90;99.90;;;;;;4992658;28;20034;-68
2024/03/03 10:23:00;;;;;;;12.50;5.97;;;14.30;99.90;;;;;;4991183;28;20022;-67
2024/03/03 10:25:26;;;;;;;17.25;6.45;;;14.20;99.90;;;;;;4992286;28;20039;-67
2024/03/03 10:27:52;;;;;;;17.40;6.55;;;14.50;99.90;;;;;;4991315;28;20034;-67
2024/03/03 10:30:22;;;;;;;13.65;5.50;;;15.10;99.90;;;;;;4992585;28;20467;-67
2024/03/03 10:32:48;;;;;;;11.45;5.55;;;14.70;99.90;;;;;;4991163;28;20061;-67
2024/03/03 10:35:18;;;;;;;10.52;4.32;;;15.10;99.90;;;;;;5007091;28;20029;-67
2024/03/03 10:37:58;;;;;;;10.38;5.55;;;15.50;99.90;;;;;;4989970;28;20037;-67
2024/03/03 10:40:24;;;;;;;14.10;5.90;;;15.00;99.90;;;;;;4985767;28;20030;-67
2024/03/03 10:42:50;;;;;;;11.60;4.65;;;15.00;99.90;;;;;;4989232;28;20034;-67
2024/03/03 10:45:16;;;;;;;15.10;5.97;;;15.50;99.90;;;;;;4992048;28;20022;-66
2024/03/03 10:47:42;;;;;;;9.60;5.25;;;15.70;99.50;;;;;;4989629;28;20030;-67
2024/03/03 10:50:19;;;;;;;17.60;6.13;;;15.30;98.60;;;;;;4990877;28;20054;-68
2024/03/03 10:52:48;;;;;;;10.93;5.07;;;15.40;99.90;;;;;;4989616;28;20037;-67
2024/03/03 10:55:14;;;;;;;19.50;6.22;;;15.90;98.90;;;;;;4982959;28;20022;-67
2024/03/03 10:57:45;;;;;;;25.58;6.78;;;15.80;98.50;;;;;;4990804;28;20105;-67
2024/03/03 11:00:16;;;;;;;16.60;5.85;;;15.80;98.40;;;;;;4990388;28;20357;-67
2024/03/03 11:02:44;;;;;;;13.00;4.60;;;15.50;98.70;;;;;;4990350;28;20033;-67
2024/03/03 11:05:13;;;;;;;9.98;4.70;;;15.90;99.30;;;;;;4990143;28;20080;-67
2024/03/03 11:07:39;;;;;;;12.65;6.15;;;16.40;99.00;;;;;;4990437;28;20041;-67
2024/03/03 11:10:06;;;;;;;15.10;5.80;;;16.50;97.10;;;;;;4990391;28;20030;-67
2024/03/03 11:12:36;;;;;;;10.07;4.43;;;16.70;96.90;;;;;;4988777;28;20509;-67
2024/03/03 11:15:07;;;;;;;14.88;5.18;;;17.70;95.00;;;;;;4991222;28;20034;-66
2024/03/03 11:17:39;;;;;;;14.20;4.82;;;17.20;94.40;;;;;;4990318;28;20034;-67
2024/03/03 11:20:14;;;;;;;11.48;5.40;;;17.00;93.80;;;;;;4989739;28;20109;-67
2024/03/03 11:23:03;;;;;;;7.13;4.10;;;17.10;94.60;;;;;;4987751;28;20563;-67
2024/03/03 11:25:34;;;;;;;8.95;4.55;;;19.00;92.10;;;;;;4985403;28;20034;-67
2024/03/03 11:28:01;;;;;;;16.65;4.43;;;19.90;90.10;;;;;;4988771;28;20042;-67
2024/03/03 11:30:27;;;;;;;9.63;4.05;;;19.70;89.70;;;;;;4991601;28;20018;-66
2024/03/03 11:32:54;;;;;;;9.23;4.47;;;21.80;85.30;;;;;;4992550;28;20027;-66
2024/03/03 11:35:21;;;;;;;12.95;4.32;;;20.60;80.40;;;;;;5010028;28;20030;-66
2024/03/03 11:37:49;;;;;;;10.68;4.38;;;20.00;82.30;;;;;;5008886;28;20034;-67
2024/03/03 11:40:16;;;;;;;5.70;3.05;;;23.20;76.70;;;;;;4995708;28;20088;-68
2024/03/03 11:42:44;;;;;;;8.38;4.18;;;20.60;78.90;;;;;;5009326;28;20045;-67
2024/03/03 11:45:11;;;;;;;12.18;4.97;;;20.10;79.60;;;;;;4995201;28;20026;-69
2024/03/03 11:47:39;;;;;;;6.68;3.28;;;21.20;77.30;;;;;;4994000;28;20030;-69
2024/03/03 11:50:21;;;;;;;9.50;4.32;;;20.70;78.60;;;;;;4995112;28;20026;-70
2024/03/03 11:52:49;;;;;;;9.48;4.65;;;20.50;77.70;;;;;;4994010;28;20026;-68
2024/03/03 11:55:16;;;;;;;9.75;4.53;;;21.70;77.30;;;;;;5000526;28;20483;-70
2024/03/03 11:57:45;;;;;;;19.88;4.55;;;23.70;70.60;;;;;;4998023;28;20092;-68
2024/03/03 12:00:17;;;;;;;11.38;4.30;;;24.20;69.10;;;;;;5001274;28;20465;-68
2024/03/03 12:02:45;;;;;;;12.27;4.18;;;23.10;65.00;;;;;;5014660;28;20034;-68
2024/03/03 12:05:14;;;;;;;13.23;5.00;;;20.50;73.30;;;;;;5013394;28;20031;-68
2024/03/03 12:07:51;;;;;;;11.15;4.32;;;20.90;74.40;;;;;;5001106;28;20435;-68
2024/03/03 12:10:22;;;;;;;7.65;3.67;;;20.30;73.50;;;;;;5014856;28;20030;-68
2024/03/03 12:12:51;;;;;;;11.20;4.90;;;21.00;73.40;;;;;;5014402;28;20027;-69
2024/03/03 12:15:25;;;;;;;9.82;4.65;;;22.70;68.70;;;;;;5016411;28;20030;-68
2024/03/03 12:17:55;;;;;;;9.85;3.47;;;21.00;73.20;;;;;;4999295;28;20490;-68
2024/03/03 12:20:24;;;;;;;9.88;3.78;;;24.00;69.00;;;;;;5002192;28;20394;-68
2024/03/03 12:22:51;;;;;;;7.65;3.85;;;24.70;64.10;;;;;;5013934;28;20117;-68
2024/03/03 12:25:23;;;;;;;11.05;3.58;;;26.50;62.40;;;;;;5017191;28;20054;-69
2024/03/03 12:27:54;;;;;;;7.78;3.42;;;26.30;60.80;;;;;;5000399;28;20042;-68
2024/03/03 12:30:36;;;;;;;9.15;4.35;;;22.20;62.60;;;;;;5016899;28;20022;-68
2024/03/03 12:33:05;;;;;;;7.47;3.30;;;21.40;66.50;;;;;;5000181;28;20034;-69
2024/03/03 12:35:32;;;;;;;9.70;4.03;;;21.90;68.60;;;;;;5014817;28;20501;-69
2024/03/03 12:37:58;;;;;;;7.43;3.30;;;25.20;63.70;;;;;;4992257;28;20034;-67
2024/03/03 12:40:27;;;;;;;7.65;3.60;;;26.30;60.90;;;;;;4995015;28;20030;-68
2024/03/03 12:42:53;;;;;;;6.10;3.67;;;24.40;62.10;;;;;;4992882;28;20022;-68